Time;durP1;ratioP1;P1;durP2;ratioP2;P2;SDS_P1;SDS_P2;PMS_P1;PMS_P2;Temp;Humidity;BMP_temperature;BMP_pressure;BME280_temperature;BME280_humidity;BME280_pressure;Samples;Min_cycle;Max_cycle;Signal;HPM_P1;HPM_P2
2023/06/11 00:02:24;;;;;;;25.33;15.77;;;;;;;;;;5057050;28;20025;-74
2023/06/11 00:04:50;;;;;;;15.65;11.70;;;;;;;;;;5056379;28;20026;-74
2023/06/11 00:07:15;;;;;;;17.65;9.68;;;;;;;;;;5055217;28;20505;-74
2023/06/11 00:09:40;;;;;;;12.43;8.70;;;;;;;;;;5057688;28;20033;-74
2023/06/11 00:12:06;;;;;;;10.83;8.10;;;;;;;;;;5056318;28;20353;-74
2023/06/11 00:14:31;;;;;;;18.98;7.95;;;;;;;;;;5054286;28;20029;-75
2023/06/11 00:16:57;;;;;;;8.93;7.43;;;;;;;;;;5040996;28;20023;-74
2023/06/11 00:19:22;;;;;;;10.70;7.87;;;;;;;;;;5056835;28;20029;-74
2023/06/11 00:21:48;;;;;;;14.23;7.97;;;;;;;;;;5057383;28;20063;-74
2023/06/11 00:24:14;;;;;;;14.20;7.60;;;;;;;;;;5040861;28;20025;-74
2023/06/11 00:26:40;;;;;;;12.05;7.57;;;;;;;;;;5057665;28;20513;-74
2023/06/11 00:29:06;;;;;;;10.77;7.88;;;;;;;;;;5056761;28;20028;-75
2023/06/11 00:31:31;;;;;;;13.68;8.38;;;;;;;;;;5058266;28;20537;-74
2023/06/11 00:33:57;;;;;;;18.02;9.50;;;;;;;;;;5059525;28;20132;-74
2023/06/11 00:36:26;;;;;;;20.90;10.63;;;;;;;;;;5040162;28;20078;-75
2023/06/11 00:38:52;;;;;;;19.13;11.05;;;;;;;;;;5054323;28;20025;-74
2023/06/11 00:41:17;;;;;;;21.10;11.38;;;;;;;17.01;nan;99851.53;5042939;28;20077;-74
2023/06/11 00:43:42;;;;;;;21.15;11.00;;;;;;;;;;5038847;28;20043;-75
2023/06/11 00:46:10;;;;;;;19.83;10.37;;;;;;;;;;5057142;28;20074;-74
2023/06/11 00:48:36;;;;;;;16.65;10.93;;;;;;;;;;5059832;28;20032;-74
2023/06/11 00:51:02;;;;;;;17.33;10.05;;;;;;;;;;5052686;28;20083;-75
2023/06/11 00:53:27;;;;;;;18.17;9.95;;;;;;;;;;5058348;28;20097;-74
2023/06/11 00:55:52;;;;;;;20.33;10.53;;;;;;;;;;5037872;28;20029;-74
2023/06/11 00:58:18;;;;;;;17.17;10.50;;;;;;;;;;5056121;28;20024;-73
2023/06/11 01:00:49;;;;;;;17.83;11.20;;;;;;;;;;5053959;28;20331;-73
2023/06/11 01:03:17;;;;;;;18.20;11.27;;;;;;;;;;5054271;28;20025;-73
2023/06/11 01:05:47;;;;;;;20.48;12.20;;;;;;;;;;5057066;28;20025;-73
2023/06/11 01:08:13;;;;;;;19.67;11.75;;;;;;;;;;5055145;28;20075;-73
2023/06/11 01:10:39;;;;;;;23.52;13.48;;;;;;;;;;5042391;28;20562;-73
2023/06/11 01:13:05;;;;;;;21.80;11.20;;;;;;;;;;5055206;28;20051;-73
2023/06/11 01:15:30;;;;;;;19.55;11.70;;;;;;;;;;5054440;28;20124;-73
2023/06/11 01:18:02;;;;;;;21.45;10.68;;;;;;;;;;5054967;28;20029;-73
2023/06/11 01:20:37;;;;;;;16.67;9.57;;;;;;;16.64;nan;99940.63;5053782;28;20028;-73
2023/06/11 01:23:33;;;;;;;18.00;10.13;;;;;;;;;;5057697;28;20522;-73
2023/06/11 01:26:12;;;;;;;19.60;10.27;;;;;;;;;;5042872;28;20383;-73
2023/06/11 01:28:38;;;;;;;19.20;10.57;;;;;;;;;;5047971;28;20393;-73
2023/06/11 01:31:08;;;;;;;15.35;9.82;;;;;;;;;;5057578;28;20036;-72
2023/06/11 01:33:35;;;;;;;14.13;9.60;;;;;;;;;;5057752;28;20120;-73
2023/06/11 01:36:01;;;;;;;15.10;9.30;;;;;;;;;;5054042;28;20025;-72
2023/06/11 01:38:34;;;;;;;13.38;9.85;;;;;;;;;;5059778;28;20032;-73
2023/06/11 01:41:00;;;;;;;19.38;10.23;;;;;;;;;;5055310;28;20035;-73
2023/06/11 01:43:25;;;;;;;13.85;8.82;;;;;;;;;;5039358;28;20029;-73
2023/06/11 01:45:51;;;;;;;15.60;8.43;;;;;;;16.47;nan;99861.28;5053756;28;20029;-74
2023/06/11 01:48:16;;;;;;;12.02;8.32;;;;;;;;;;5054077;28;20082;-73
2023/06/11 01:50:41;;;;;;;14.17;8.60;;;;;;;;;;5055795;28;20050;-73
2023/06/11 01:53:07;;;;;;;12.67;8.53;;;;;;;;;;5055333;28;20277;-72
2023/06/11 01:55:32;;;;;;;15.87;8.73;;;;;;;;;;5056818;28;20278;-73
2023/06/11 01:57:57;;;;;;;15.87;8.80;;;;;;;;;;5055844;28;20276;-73
2023/06/11 02:00:23;;;;;;;11.60;8.60;;;;;;;;;;5052399;28;20029;-73
2023/06/11 02:02:48;;;;;;;17.02;8.77;;;;;;;;;;5054984;28;20583;-73
2023/06/11 02:05:13;;;;;;;13.88;9.10;;;;;;;;;;5058586;28;20649;-74
2023/06/11 02:07:38;;;;;;;15.43;7.78;;;;;;;;;;5054872;28;20028;-73
2023/06/11 02:10:04;;;;;;;14.17;8.50;;;;;;;;;;5054230;28;20421;-73
2023/06/11 02:12:29;;;;;;;10.35;7.57;;;;;;;;;;5055618;28;20053;-74
2023/06/11 02:14:55;;;;;;;12.98;8.30;;;;;;;;;;5051127;28;20036;-72
2023/06/11 02:17:20;;;;;;;14.25;8.85;;;;;;;;;;5053393;28;20074;-73
2023/06/11 02:19:46;;;;;;;16.63;8.30;;;;;;;;;;5053031;28;20029;-73
2023/06/11 02:22:11;;;;;;;14.10;8.35;;;;;;;;;;5055712;28;20055;-73
2023/06/11 02:24:37;;;;;;;12.27;7.87;;;;;;;16.38;nan;99940.78;5053499;28;20399;-73
2023/06/11 02:27:02;;;;;;;12.40;8.20;;;;;;;;;;5055398;28;20267;-73
2023/06/11 02:29:27;;;;;;;13.77;7.63;;;;;;;;;;5057339;28;20045;-74
2023/06/11 02:31:52;;;;;;;12.87;7.87;;;;;;;;;;5053171;28;20265;-73
2023/06/11 02:34:18;;;;;;;15.30;8.20;;;;;;;;;;5053577;28;20616;-73
2023/06/11 02:36:43;;;;;;;14.50;8.23;;;;;;;;;;5054251;28;20291;-73
2023/06/11 02:39:08;;;;;;;11.03;7.90;;;;;;;;;;5053447;28;20021;-71
2023/06/11 02:41:33;;;;;;;18.47;8.97;;;;;;;;;;5055864;28;20090;-72
2023/06/11 02:43:59;;;;;;;17.73;8.80;;;;;;;;;;5051876;28;20269;-72
2023/06/11 02:46:24;;;;;;;15.80;8.38;;;;;;;;;;5038621;28;20334;-72
2023/06/11 02:48:49;;;;;;;14.25;8.35;;;;;;;;;;5054989;28;20073;-73
2023/06/11 02:51:15;;;;;;;16.00;8.32;;;;;;;;;;5045686;28;20029;-73
2023/06/11 02:53:40;;;;;;;16.03;8.63;;;;;;;16.14;nan;99956.56;5052081;28;20033;-72
2023/06/11 02:56:05;;;;;;;14.85;8.38;;;;;;;;;;5055605;28;20320;-72
2023/06/11 02:58:31;;;;;;;16.50;8.53;;;;;;;;;;5057022;28;20496;-73
2023/06/11 03:00:56;;;;;;;12.90;8.30;;;;;;;;;;5053854;28;20063;-72
2023/06/11 03:03:21;;;;;;;16.53;8.40;;;;;;;;;;5054057;28;20024;-72
2023/06/11 03:05:46;;;;;;;14.97;8.10;;;;;;;;;;5054384;28;20266;-72
2023/06/11 03:08:12;;;;;;;16.63;8.15;;;;;;;;;;5052311;28;20029;-73
2023/06/11 03:10:37;;;;;;;13.97;7.53;;;;;;;;;;5058966;28;20040;-73
2023/06/11 03:13:02;;;;;;;16.27;7.50;;;;;;;;;;5053772;28;20368;-72
2023/06/11 03:15:28;;;;;;;11.77;7.18;;;;;;;;;;5042017;28;20033;-73
2023/06/11 03:17:53;;;;;;;17.33;8.30;;;;;;;;;;5055618;28;20032;-72
2023/06/11 03:20:18;;;;;;;9.83;6.57;;;;;;;;;;5052397;28;20033;-74
2023/06/11 03:22:43;;;;;;;10.00;7.23;;;;;;;;;;5053854;28;20362;-74
2023/06/11 03:25:09;;;;;;;12.47;6.97;;;;;;;;;;5057471;28;20037;-72
2023/06/11 03:27:34;;;;;;;16.73;6.80;;;;;;;;;;5056311;28;20751;-73
2023/06/11 03:29:59;;;;;;;11.50;6.90;;;;;;;;;;5059399;28;20029;-72
2023/06/11 03:32:24;;;;;;;10.37;6.53;;;;;;;15.92;nan;99964.91;5057104;28;21865;-73
2023/06/11 03:34:52;;;;;;;10.65;6.78;;;;;;;;;;5059171;28;20889;-74
2023/06/11 03:37:18;;;;;;;15.25;6.95;;;;;;;;;;5058776;28;20048;-72
2023/06/11 03:39:43;;;;;;;17.65;7.63;;;;;;;;;;5059284;28;20029;-72
2023/06/11 03:42:08;;;;;;;13.87;6.83;;;;;;;;;;5057548;28;20694;-73
2023/06/11 03:44:34;;;;;;;8.70;6.40;;;;;;;;;;5059389;28;20025;-72
2023/06/11 03:46:59;;;;;;;11.70;6.68;;;;;;;;;;5058067;28;20060;-72
2023/06/11 03:49:24;;;;;;;13.90;7.03;;;;;;;;;;5057853;28;20028;-73
2023/06/11 03:51:50;;;;;;;15.33;6.43;;;;;;;;;;5057688;28;21219;-73
2023/06/11 03:54:15;;;;;;;11.97;6.47;;;;;;;;;;5059391;28;20268;-73
2023/06/11 03:56:40;;;;;;;10.67;6.50;;;;;;;;;;5056120;28;20060;-73
2023/06/11 03:59:05;;;;;;;11.43;6.23;;;;;;;;;;5057104;28;20029;-73
2023/06/11 04:01:30;;;;;;;9.53;6.57;;;;;;;;;;5059621;28;20050;-73
2023/06/11 04:03:56;;;;;;;10.93;7.00;;;;;;;;;;5056967;28;20032;-75
2023/06/11 04:06:21;;;;;;;15.25;6.35;;;;;;;;;;5055768;28;21143;-74
2023/06/11 04:08:46;;;;;;;13.17;6.50;;;;;;;;;;5056614;28;20028;-74
2023/06/11 04:11:12;;;;;;;14.77;6.23;;;;;;;;;;5061063;28;20048;-73
2023/06/11 04:13:37;;;;;;;13.90;6.17;;;;;;;;;;5040869;28;20442;-73
2023/06/11 04:16:02;;;;;;;10.77;6.57;;;;;;;;;;5042434;28;20282;-73
2023/06/11 04:18:27;;;;;;;13.15;6.38;;;;;;;;;;5060382;28;20028;-74
2023/06/11 04:20:53;;;;;;;12.93;6.43;;;;;;;;;;5059095;28;20032;-73
2023/06/11 04:23:18;;;;;;;14.05;5.93;;;;;;;;;;5059753;28;20048;-73
2023/06/11 04:25:43;;;;;;;13.10;6.13;;;;;;;;;;5040708;28;20033;-73
2023/06/11 04:28:10;;;;;;;17.05;6.32;;;;;;;;;;5043364;28;20383;-73
2023/06/11 04:30:36;;;;;;;12.70;6.65;;;;;;;;;;5038069;28;20108;-72
2023/06/11 04:33:04;;;;;;;10.40;6.15;;;;;;;;;;5057410;28;20043;-73
2023/06/11 04:35:34;;;;;;;10.48;6.18;;;;;;;;;;5060633;28;20020;-73
2023/06/11 04:37:59;;;;;;;11.18;6.15;;;;;;;;;;5056034;28;20028;-73
2023/06/11 04:40:25;;;;;;;12.43;6.60;;;;;;;;;;5058649;28;20039;-73
2023/06/11 04:42:50;;;;;;;15.23;6.88;;;;;;;16.94;nan;100031.94;5055890;28;20028;-72
2023/06/11 04:45:20;;;;;;;7.05;5.50;;;;;;;;;;5056141;28;20039;-72
2023/06/11 04:47:46;;;;;;;9.40;6.22;;;;;;;;;;5055161;28;20020;-72
2023/06/11 04:50:11;;;;;;;12.05;6.47;;;;;;;17.15;nan;99977.50;5059230;28;20082;-73
2023/06/11 04:52:43;;;;;;;11.23;5.80;;;;;;;17.29;nan;99998.16;5056567;28;20028;-73
2023/06/11 04:55:09;;;;;;;13.20;6.07;;;;;;;17.28;nan;99980.59;5038800;28;20029;-73
2023/06/11 04:57:36;;;;;;;10.57;6.35;;;;;;;17.36;nan;99998.63;5058887;28;20364;-73
2023/06/11 05:00:04;;;;;;;12.90;6.43;;;;;;;17.44;nan;99998.00;5040947;28;20028;-73
2023/06/11 05:02:32;;;;;;;11.10;5.57;;;;;;;17.38;nan;99991.13;5058018;28;20109;-71
2023/06/11 05:04:57;;;;;;;14.50;6.20;;;;;;;17.46;nan;99985.22;5055154;28;20025;-72
2023/06/11 05:07:23;;;;;;;9.80;5.95;;;;;;;17.61;nan;99987.72;5057104;28;20112;-73
2023/06/11 05:09:48;;;;;;;9.55;6.10;;;;;;;17.64;nan;99989.03;5056149;28;20435;-73
2023/06/11 05:12:14;;;;;;;10.50;6.20;;;;;;;17.65;nan;99982.66;5057841;28;20378;-72
2023/06/11 05:14:39;;;;;;;11.30;6.45;;;;;;;17.77;nan;99992.91;5061575;28;20383;-72
2023/06/11 05:17:05;;;;;;;10.20;5.93;;;;;;;17.81;nan;99986.78;5053905;28;20021;-71
2023/06/11 05:19:30;;;;;;;8.88;6.45;;;;;;;17.93;nan;99997.00;5056362;28;20164;-72
2023/06/11 05:21:56;;;;;;;10.68;5.68;;;;;;;17.91;nan;99996.53;5061261;28;20574;-72
2023/06/11 05:24:21;;;;;;;11.13;6.68;;;;;;;17.95;nan;99986.88;5040360;28;20123;-72
2023/06/11 05:26:47;;;;;;;10.32;6.32;;;;;;;18.03;nan;99998.78;5056882;28;20383;-71
2023/06/11 05:29:12;;;;;;;9.80;6.15;;;;;;;18.12;nan;99997.06;5057288;28;20107;-72
2023/06/11 05:31:40;;;;;;;10.57;6.60;;;;;;;18.21;nan;100003.34;5048357;28;20027;-73
2023/06/11 05:34:06;;;;;;;9.30;6.05;;;;;;;18.27;nan;99996.09;5057607;28;20135;-73
2023/06/11 05:36:32;;;;;;;8.77;6.10;;;;;;;18.39;nan;99988.47;5055063;28;20108;-74
2023/06/11 05:38:57;;;;;;;8.10;5.95;;;;;;;18.45;nan;99991.84;5039817;28;20032;-73
2023/06/11 05:41:23;;;;;;;10.70;6.30;;;;;;;18.59;nan;100006.06;5054428;28;20028;-72
2023/06/11 05:43:48;;;;;;;9.40;6.45;;;;;;;18.65;nan;99999.59;5056557;28;20025;-73
2023/06/11 05:46:14;;;;;;;9.73;6.05;;;;;;;18.75;nan;100008.50;5058193;28;20016;-72
2023/06/11 05:48:41;;;;;;;8.05;5.70;;;;;;;18.80;nan;100008.50;5055766;28;20063;-72
2023/06/11 05:51:06;;;;;;;10.02;5.68;;;;;;;18.86;nan;100004.66;5055820;28;20052;-72
2023/06/11 05:53:32;;;;;;;9.93;5.72;;;;;;;18.91;nan;99994.72;5041656;28;20411;-73
2023/06/11 05:56:03;;;;;;;10.07;6.32;;;;;;;19.02;nan;100014.00;5056385;28;20095;-73
2023/06/11 05:58:28;;;;;;;11.30;6.32;;;;;;;;;;5054915;28;20024;-72
2023/06/11 06:00:54;;;;;;;11.48;5.50;;;;;;;19.06;nan;99958.19;5038431;28;20036;-72
2023/06/11 06:03:19;;;;;;;8.55;5.60;;;;;;;19.20;nan;99971.56;5053851;28;20552;-72
2023/06/11 06:05:45;;;;;;;12.00;5.72;;;;;;;19.31;nan;99954.28;5035494;28;20044;-72
2023/06/11 06:08:11;;;;;;;9.88;5.97;;;;;;;19.32;nan;99947.84;5055996;28;20145;-73
2023/06/11 06:10:36;;;;;;;10.07;5.78;;;;;;;19.36;nan;99969.44;5057384;28;20061;-73
2023/06/11 06:13:02;;;;;;;9.55;5.50;;;;;;;19.42;nan;100024.31;5055313;28;20052;-72
2023/06/11 06:15:27;;;;;;;8.60;5.60;;;;;;;19.54;nan;99965.91;5054252;28;20029;-73
2023/06/11 06:17:52;;;;;;;9.55;5.90;;;;;;;;;;5056647;28;20017;-71
2023/06/11 06:20:17;;;;;;;9.00;5.67;;;;;;;19.59;nan;99951.66;5055258;28;20025;-73
2023/06/11 06:22:43;;;;;;;9.68;5.60;;;;;;;19.73;nan;100016.63;5053257;28;20049;-73
2023/06/11 06:25:08;;;;;;;8.30;5.82;;;;;;;19.82;nan;100011.38;5052115;28;20029;-73
2023/06/11 06:27:34;;;;;;;9.63;5.80;;;;;;;19.91;nan;100020.28;5055575;28;20025;-73
2023/06/11 06:30:01;;;;;;;11.32;5.65;;;;;;;20.03;nan;100014.44;5054638;28;20106;-73
2023/06/11 06:32:28;;;;;;;9.82;5.85;;;;;;;20.11;nan;100019.91;5054235;28;20017;-73
2023/06/11 06:34:53;;;;;;;7.43;5.57;;;;;;;20.15;nan;100009.38;5055543;28;20121;-75
2023/06/11 06:37:18;;;;;;;6.95;5.50;;;;;;;20.11;nan;100001.19;5057696;28;21469;-74
2023/06/11 06:39:44;;;;;;;6.97;5.53;;;;;;;20.20;nan;100011.94;5055336;28;20032;-75
2023/06/11 06:42:10;;;;;;;10.35;5.68;;;;;;;20.33;nan;100011.16;5055783;28;20501;-74
2023/06/11 06:44:35;;;;;;;6.78;5.20;;;;;;;20.52;nan;100032.44;5056945;28;20031;-74
2023/06/11 06:47:01;;;;;;;7.60;5.43;;;;;;;20.45;nan;100001.81;5054201;28;20036;-75
2023/06/11 06:49:26;;;;;;;7.57;5.15;;;;;;;20.66;nan;100019.03;5054749;28;20089;-74
2023/06/11 06:51:52;;;;;;;11.98;5.65;;;;;;;20.72;nan;100025.06;5051847;28;20035;-73
2023/06/11 06:54:17;;;;;;;9.13;5.72;;;;;;;20.64;nan;100013.22;5053621;28;20047;-72
2023/06/11 06:56:43;;;;;;;8.00;5.13;;;;;;;20.81;nan;100021.38;5054050;28;20025;-72
2023/06/11 06:59:08;;;;;;;11.10;5.57;;;;;;;20.90;nan;100013.44;5053536;28;20086;-72
2023/06/11 07:01:33;;;;;;;12.15;5.10;;;;;;;20.97;nan;100011.13;5056577;28;20020;-73
2023/06/11 07:03:59;;;;;;;9.02;5.35;;;;;;;21.06;nan;100026.44;5055032;28;20033;-72
2023/06/11 07:06:25;;;;;;;8.25;4.78;;;;;;;21.04;nan;100008.78;5057525;28;20048;-73
2023/06/11 07:08:51;;;;;;;8.48;4.90;;;;;;;21.08;nan;100002.84;5054771;28;20025;-72
2023/06/11 07:11:17;;;;;;;8.65;5.28;;;;;;;21.27;nan;100022.19;5056438;28;20036;-72
2023/06/11 07:13:42;;;;;;;9.98;4.88;;;;;;;21.24;nan;100009.41;5051434;28;20709;-72
2023/06/11 07:16:08;;;;;;;6.57;5.00;;;;;;;21.31;nan;100009.78;5053584;28;20395;-72
2023/06/11 07:18:33;;;;;;;7.60;5.03;;;;;;;21.31;nan;100004.41;5055860;28;20087;-72
2023/06/11 07:20:59;;;;;;;10.55;4.80;;;;;;;21.32;nan;99999.84;5052721;28;20032;-73
2023/06/11 07:23:24;;;;;;;9.80;5.20;;;;;;;21.23;nan;99970.31;5053305;28;20049;-73
2023/06/11 07:25:50;;;;;;;5.97;4.70;;;;;;;21.54;nan;100013.22;5053622;28;20112;-73
2023/06/11 07:28:16;;;;;;;6.82;4.43;;;;;;;21.62;nan;100004.44;5054402;28;20029;-72
2023/06/11 07:30:41;;;;;;;5.63;4.45;;;;;;;21.69;nan;100003.97;5055410;28;20063;-72
2023/06/11 07:33:08;;;;;;;7.93;4.68;;;;;;;21.78;nan;99996.78;5057571;28;20054;-72
2023/06/11 07:35:33;;;;;;;9.15;5.22;;;;;;;21.74;nan;99976.25;5052653;28;20037;-72
2023/06/11 07:37:58;;;;;;;7.95;4.82;;;;;;;21.95;nan;99993.38;5038658;28;20318;-72
2023/06/11 07:40:24;;;;;;;6.65;4.57;;;;;;;22.01;nan;99994.03;5056236;28;20179;-72
2023/06/11 07:42:49;;;;;;;5.57;4.60;;;;;;;21.99;nan;99994.34;5040636;28;20036;-72
2023/06/11 07:45:15;;;;;;;7.25;4.13;;;;;;;22.01;nan;99989.44;5036222;28;20082;-72
2023/06/11 07:47:41;;;;;;;4.88;4.38;;;;;;;22.21;nan;100009.56;5055717;28;20109;-72
2023/06/11 07:50:08;;;;;;;8.52;4.22;;;;;;;22.30;nan;100005.00;5053085;28;20123;-72
2023/06/11 07:52:33;;;;;;;7.20;4.03;;;;;;;22.33;nan;99995.53;5037934;28;20060;-72
2023/06/11 07:54:59;;;;;;;6.07;4.07;;;;;;;22.42;nan;99999.03;5052036;28;20435;-73
2023/06/11 07:57:25;;;;;;;6.82;4.07;;;;;;;22.50;nan;99992.88;5044752;28;20074;-72
2023/06/11 07:59:51;;;;;;;4.40;4.00;;;;;;;22.60;nan;99999.03;5034161;28;20076;-73
2023/06/11 08:02:16;;;;;;;6.35;4.43;;;;;;;22.64;nan;100000.00;5055270;28;20032;-73
2023/06/11 08:04:42;;;;;;;7.47;4.07;;;;;;;22.75;nan;99997.75;5054650;28;20025;-72
2023/06/11 08:07:07;;;;;;;8.50;4.40;;;;;;;22.81;nan;99994.63;5055265;28;20082;-72
2023/06/11 08:09:35;;;;;;;5.72;4.10;;;;;;;22.88;nan;99992.25;5050915;28;20032;-71
2023/06/11 08:12:11;;;;;;;7.30;4.35;;;;;;;22.99;nan;99994.66;5058583;28;20025;-71
2023/06/11 08:14:37;;;;;;;7.13;4.00;;;;;;;23.10;nan;99996.66;5055910;28;20068;-72
2023/06/11 08:17:03;;;;;;;4.47;3.88;;;;;;;23.06;nan;99990.38;5059588;28;20478;-72
2023/06/11 08:19:29;;;;;;;5.18;4.03;;;;;;;23.09;nan;99989.72;5057073;28;20017;-72
2023/06/11 08:21:55;;;;;;;5.57;3.60;;;;;;;23.21;nan;99991.75;5057562;28;20059;-72
2023/06/11 08:24:21;;;;;;;3.88;3.47;;;;;;;23.28;nan;99988.59;5056858;28;20495;-72
2023/06/11 08:26:47;;;;;;;5.45;3.70;;;;;;;23.34;nan;99988.09;5055268;28;20037;-72
2023/06/11 08:29:13;;;;;;;4.22;3.42;;;;;;;23.44;nan;99997.72;5059397;28;20025;-71
2023/06/11 08:31:38;;;;;;;4.43;3.72;;;;;;;23.52;nan;99994.19;5058135;28;20025;-71
2023/06/11 08:34:04;;;;;;;6.03;3.72;;;;;;;23.31;nan;99956.47;5057414;28;20122;-72
2023/06/11 08:36:29;;;;;;;5.43;3.45;;;;;;;23.55;nan;99984.69;5060431;28;20016;-72
2023/06/11 08:38:54;;;;;;;3.58;3.25;;;;;;;23.67;nan;100002.84;5057611;28;20037;-72
2023/06/11 08:41:20;;;;;;;4.63;3.33;;;;;;;23.72;nan;99994.59;5060903;28;20056;-71
2023/06/11 08:43:45;;;;;;;4.10;3.65;;;;;;;23.62;nan;99982.31;5056095;28;20035;-72
2023/06/11 08:46:14;;;;;;;3.90;3.42;;;;;;;23.78;nan;99991.44;5062249;28;20491;-71
2023/06/11 08:48:44;;;;;;;;;;;;;;;23.90;nan;100001.50;5042908;28;20672;-72
2023/06/11 08:51:10;;;;;;;7.22;3.40;;;;;;;23.86;nan;99992.50;5056727;28;19917;-72
2023/06/11 08:53:37;;;;;;;5.72;3.80;;;;;;;23.72;nan;99954.28;5058782;28;20037;-71
2023/06/11 08:56:03;;;;;;;4.32;3.55;;;;;;;23.98;nan;99986.44;5045350;28;20066;-73
2023/06/11 08:58:31;;;;;;;4.03;3.60;;;;;;;24.08;nan;100001.41;5058474;28;20045;-72
2023/06/11 09:00:56;;;;;;;4.80;3.47;;;;;;;24.03;nan;99988.94;5057037;28;20035;-72
2023/06/11 09:03:21;;;;;;;4.22;3.40;;;;;;;24.04;nan;99973.56;5058392;28;20794;-71
2023/06/11 09:05:48;;;;;;;4.15;3.63;;;;;;;23.95;nan;99955.59;5060529;28;20115;-72
2023/06/11 09:08:13;;;;;;;4.90;3.15;;;;;;;24.16;nan;99987.91;5038238;28;20029;-72
2023/06/11 09:10:51;;;;;;;4.40;3.33;;;;;;;24.08;nan;99972.59;5057592;28;20031;-72
2023/06/11 09:13:17;;;;;;;3.92;3.53;;;;;;;24.26;nan;99988.66;5054980;28;20023;-72
2023/06/11 09:15:47;;;;;;;3.50;3.20;;;;;;;24.26;nan;99981.38;5055648;28;20033;-73
2023/06/11 09:18:18;;;;;;;5.70;3.38;;;;;;;24.28;nan;99971.06;5058796;28;20032;-72
2023/06/11 09:20:48;;;;;;;3.75;3.33;;;;;;;24.44;nan;99981.25;5054861;28;20027;-72
2023/06/11 09:23:23;;;;;;;4.05;3.50;;;;;;;24.48;nan;99976.81;5051357;28;20171;-73
2023/06/11 09:25:48;;;;;;;3.35;3.03;;;;;;;24.54;nan;99978.97;5053540;28;20724;-72
2023/06/11 09:28:14;;;;;;;3.60;3.00;;;;;;;24.33;nan;99940.50;5042601;28;20088;-72
2023/06/11 09:30:39;;;;;;;3.47;3.15;;;;;;;24.57;nan;99974.84;5039134;28;20370;-73
2023/06/11 09:33:15;;;;;;;3.38;3.08;;;;;;;24.51;nan;99968.06;5052896;28;20016;-73
2023/06/11 09:35:46;;;;;;;3.72;3.30;;;;;;;24.59;nan;99972.59;5055090;28;20024;-72
2023/06/11 09:38:19;;;;;;;3.60;3.20;;;;;;;24.65;nan;99973.19;5057516;28;20029;-72
2023/06/11 09:40:48;;;;;;;4.82;3.28;;;;;;;24.71;nan;99972.66;5054197;28;20040;-73
2023/06/11 09:43:15;;;;;;;4.05;2.88;;;;;;;24.67;nan;99955.59;5054204;28;20466;-72
2023/06/11 09:45:43;;;;;;;4.70;3.10;;;;;;;24.78;nan;99962.16;5054377;28;20028;-72
2023/06/11 09:48:12;;;;;;;3.55;3.25;;;;;;;24.81;nan;99960.69;5053726;28;20021;-73
2023/06/11 09:50:38;;;;;;;4.88;2.95;;;;;;;24.86;nan;99970.47;5055790;28;20487;-72
2023/06/11 09:53:04;;;;;;;5.88;3.22;;;;;;;24.89;nan;99962.50;5052655;28;20060;-73
2023/06/11 09:55:36;;;;;;;3.78;3.15;;;;;;;24.98;nan;99965.13;5054495;28;20048;-73
2023/06/11 09:58:04;;;;;;;4.28;3.13;;;;;;;24.91;nan;99946.81;5046229;28;20235;-73
2023/06/11 10:00:30;;;;;;;4.55;3.03;;;;;;;25.03;nan;99954.13;5056695;28;20036;-73
2023/06/11 10:02:57;;;;;;;3.30;3.00;;;;;;;25.19;nan;99962.41;5054852;28;20044;-73
2023/06/11 10:05:23;;;;;;;4.03;3.10;;;;;;;25.24;nan;99959.50;5055584;28;20086;-74
2023/06/11 10:07:51;;;;;;;3.25;2.72;;;;;;;25.24;nan;99954.88;5055351;28;20028;-74
2023/06/11 10:10:21;;;;;;;3.33;3.03;;;;;;;25.17;nan;99949.25;5043930;28;20021;-73
2023/06/11 10:12:53;;;;;;;3.55;3.20;;;;;;;25.18;nan;99937.34;5055596;28;20542;-74
2023/06/11 10:15:25;;;;;;;6.22;2.88;;;;;;;25.29;nan;99936.94;5055238;28;20128;-74
2023/06/11 10:17:53;;;;;;;3.20;2.60;;;;;;;25.33;nan;99938.63;5055444;28;20025;-74
2023/06/11 10:20:18;;;;;;;4.47;2.80;;;;;;;25.45;nan;99943.22;5041409;28;20036;-74
2023/06/11 10:22:44;;;;;;;6.50;2.75;;;;;;;25.53;nan;99939.66;5052723;28;20053;-74
2023/06/11 10:25:09;;;;;;;3.60;3.00;;;;;;;25.50;nan;99921.47;5057132;28;20021;-74
2023/06/11 10:27:36;;;;;;;7.93;2.92;;;;;;;25.68;nan;99938.97;5055378;28;20032;-73
2023/06/11 10:30:02;;;;;;;4.25;3.17;;;;;;;25.73;nan;99932.56;5057715;28;20055;-74
2023/06/11 10:32:28;;;;;;;3.83;3.25;;;;;;;25.61;nan;99911.00;5055550;28;20470;-73
2023/06/11 10:34:58;;;;;;;5.22;3.00;;;;;;;25.76;nan;99929.16;5055636;28;20036;-74
2023/06/11 10:37:36;;;;;;;3.63;2.90;;;;;;;25.77;nan;99878.75;5053444;28;20031;-74
2023/06/11 10:40:06;;;;;;;8.02;4.07;;;;;;;25.79;nan;99877.28;5039049;28;20036;-73
2023/06/11 10:42:39;;;;;;;4.53;3.17;;;;;;;;;;5040456;28;20117;-74
2023/06/11 10:45:11;;;;;;;4.13;3.67;;;;;;;25.78;nan;99866.81;5055353;28;20021;-74
2023/06/11 10:47:46;;;;;;;3.65;2.80;;;;;;;25.84;nan;99895.91;5052439;28;20029;-74
2023/06/11 10:50:13;;;;;;;3.30;2.88;;;;;;;25.86;nan;99872.13;5057448;28;20032;-74
2023/06/11 10:52:54;;;;;;;3.33;2.70;;;;;;;25.91;nan;99873.78;5056626;28;20029;-74
2023/06/11 10:55:20;;;;;;;3.47;3.13;;;;;;;;;;5051933;28;20032;-75
2023/06/11 10:57:46;;;;;;;3.47;2.97;;;;;;;26.08;nan;99867.34;5055468;28;20028;-74
2023/06/11 11:00:13;;;;;;;4.00;3.30;;;;;;;26.17;nan;99864.47;5053948;28;20595;-75
2023/06/11 11:02:39;;;;;;;3.65;3.30;;;;;;;;;;5053878;28;20032;-74
2023/06/11 11:05:07;;;;;;;3.90;3.50;;;;;;;26.22;nan;99829.97;5058001;28;20046;-74
2023/06/11 11:07:36;;;;;;;4.72;3.08;;;;;;;26.33;nan;99896.94;5054995;28;20040;-74
2023/06/11 11:10:06;;;;;;;4.63;3.22;;;;;;;26.34;nan;99853.41;5039741;28;20029;-74
2023/06/11 11:12:39;;;;;;;3.53;3.20;;;;;;;26.33;nan;99841.03;5051008;28;20045;-74
2023/06/11 11:15:05;;;;;;;3.05;2.75;;;;;;;26.42;nan;99913.78;5052323;28;20021;-75
2023/06/11 11:17:32;;;;;;;5.00;3.60;;;;;;;26.50;nan;99856.13;5038219;28;20418;-74
2023/06/11 11:19:58;;;;;;;5.22;3.42;;;;;;;26.59;nan;99869.53;5052425;28;20012;-74
2023/06/11 11:22:29;;;;;;;4.45;2.70;;;;;;;26.63;nan;99865.78;5029591;28;20095;-73
2023/06/11 11:24:59;;;;;;;3.10;2.70;;;;;;;26.66;nan;99865.09;5033700;28;20159;-74
2023/06/11 11:27:24;;;;;;;5.68;3.30;;;;;;;26.76;nan;99820.56;5036170;28;20115;-73
2023/06/11 11:29:50;;;;;;;15.00;6.57;;;;;;;26.79;nan;99868.50;5037529;28;20539;-73
2023/06/11 11:32:17;;;;;;;4.68;3.97;;;;;;;26.65;nan;99849.22;5032583;28;20033;-74
2023/06/11 11:34:44;;;;;;;4.70;3.58;;;;;;;26.66;nan;99848.88;5035556;28;20120;-74
2023/06/11 11:37:09;;;;;;;6.20;4.18;;;;;;;26.62;nan;99831.78;5031598;28;20043;-73
2023/06/11 11:39:35;;;;;;;5.03;3.33;;;;;;;26.64;nan;99859.25;5034990;28;20017;-73
2023/06/11 11:42:01;;;;;;;4.13;2.95;;;;;;;26.68;nan;99856.66;5034969;28;20060;-74
2023/06/11 11:44:27;;;;;;;3.80;3.22;;;;;;;26.72;nan;99830.50;5034255;28;20057;-74
2023/06/11 11:46:57;;;;;;;4.97;3.47;;;;;;;26.82;nan;99851.59;5035044;28;20127;-74
2023/06/11 11:49:30;;;;;;;3.90;3.47;;;;;;;26.99;nan;99822.69;5039860;28;20040;-74
2023/06/11 11:52:00;;;;;;;3.53;2.90;;;;;;;26.95;nan;99784.75;5035862;28;20108;-74
2023/06/11 11:54:26;;;;;;;3.90;2.88;;;;;;;27.11;nan;99817.94;5038545;28;20064;-74
2023/06/11 11:57:07;;;;;;;4.05;3.20;;;;;;;27.19;nan;99813.53;5039023;28;20481;-74
2023/06/11 11:59:40;;;;;;;4.75;2.80;;;;;;;27.28;nan;99818.75;5036525;28;20033;-74
2023/06/11 12:02:06;;;;;;;4.13;2.90;;;;;;;27.36;nan;99812.34;5037850;28;20040;-74
2023/06/11 12:04:38;;;;;;;3.13;2.83;;;;;;;27.46;nan;99816.44;5044993;28;20085;-74
2023/06/11 12:07:04;;;;;;;4.45;2.95;;;;;;;27.41;nan;99795.06;5037650;28;20079;-74
2023/06/11 12:09:30;;;;;;;3.13;2.72;;;;;;;27.38;nan;99825.53;5036110;28;20033;-74
2023/06/11 12:11:55;;;;;;;3.40;2.90;;;;;;;27.41;nan;99819.41;5040741;28;20075;-74
2023/06/11 12:14:21;;;;;;;4.88;4.30;;;;;;;27.38;nan;99869.56;5038258;28;20029;-74
2023/06/11 12:16:49;;;;;;;6.25;4.78;;;;;;;27.34;nan;99828.94;5036812;28;20590;-74
2023/06/11 12:19:17;;;;;;;8.27;6.38;;;;;;;27.31;nan;99774.78;5038264;28;20140;-74
2023/06/11 12:21:43;;;;;;;4.50;3.90;;;;;;;27.34;nan;99876.81;5043337;28;20131;-73
2023/06/11 12:24:11;;;;;;;5.45;4.50;;;;;;;27.28;nan;99775.50;5057487;28;20115;-73
2023/06/11 12:26:37;;;;;;;11.55;5.25;;;;;;;27.21;nan;99854.50;5058866;28;20032;-74
2023/06/11 12:29:02;;;;;;;8.00;5.55;;;;;;;27.19;nan;99813.53;5058859;28;20434;-74
2023/06/11 12:31:28;;;;;;;14.57;8.47;;;;;;;27.20;nan;99838.63;5057200;28;20013;-75
2023/06/11 12:33:53;;;;;;;10.55;8.38;;;;;;;27.16;nan;99811.50;5055185;28;20266;-75
2023/06/11 12:36:18;;;;;;;8.20;6.10;;;;;;;27.10;nan;99815.59;5057173;28;20024;-74
2023/06/11 12:38:45;;;;;;;8.15;4.50;;;;;;;26.96;nan;99886.31;5054368;28;20533;-75